sensor_id;sensor_type;location;lat;lon;timestamp;pressure;altitude;pressure_sealevel;temperature;humidity
62402;BME280;48440;51.224;22.506;2022-12-18T00:01:27;100408.00;;;-5.14;72.89
62402;BME280;48440;51.224;22.506;2022-12-18T00:03:53;100404.00;;;-5.08;73.05
62402;BME280;48440;51.224;22.506;2022-12-18T00:06:20;100403.06;;;-5.07;72.59
62402;BME280;48440;51.224;22.506;2022-12-18T00:08:46;100406.91;;;-5.11;72.57
62402;BME280;48440;51.224;22.506;2022-12-18T00:11:16;100412.59;;;-5.16;72.91
62402;BME280;48440;51.224;22.506;2022-12-18T00:13:41;100412.34;;;-5.13;72.65
62402;BME280;48440;51.224;22.506;2022-12-18T00:16:10;100427.63;;;-5.16;72.82
62402;BME280;48440;51.224;22.506;2022-12-18T00:18:36;100424.84;;;-5.15;72.53
62402;BME280;48440;51.224;22.506;2022-12-18T00:21:05;100431.25;;;-5.17;72.60
62402;BME280;48440;51.224;22.506;2022-12-18T00:23:33;100438.69;;;-5.11;72.48
62402;BME280;48440;51.224;22.506;2022-12-18T00:26:03;100441.94;;;-5.19;72.20
62402;BME280;48440;51.224;22.506;2022-12-18T00:28:29;100438.16;;;-5.26;72.99
62402;BME280;48440;51.224;22.506;2022-12-18T00:31:07;100443.19;;;-5.23;73.11
62402;BME280;48440;51.224;22.506;2022-12-18T00:33:33;100446.69;;;-5.22;72.83
62402;BME280;48440;51.224;22.506;2022-12-18T00:36:04;100449.78;;;-5.17;72.75
62402;BME280;48440;51.224;22.506;2022-12-18T00:38:30;100451.97;;;-5.22;72.47
62402;BME280;48440;51.224;22.506;2022-12-18T00:40:55;100459.19;;;-5.24;72.70
62402;BME280;48440;51.224;22.506;2022-12-18T00:43:21;100460.88;;;-5.23;72.95
62402;BME280;48440;51.224;22.506;2022-12-18T00:45:46;100459.06;;;-5.23;72.41
62402;BME280;48440;51.224;22.506;2022-12-18T00:48:12;100470.63;;;-5.24;72.78
62402;BME280;48440;51.224;22.506;2022-12-18T00:50:37;100471.00;;;-5.28;72.92
62402;BME280;48440;51.224;22.506;2022-12-18T00:53:03;100465.13;;;-5.32;72.52
62402;BME280;48440;51.224;22.506;2022-12-18T00:55:28;100459.56;;;-5.29;72.56
62402;BME280;48440;51.224;22.506;2022-12-18T00:57:54;100463.19;;;-5.30;72.65
62402;BME280;48440;51.224;22.506;2022-12-18T01:00:20;100467.88;;;-5.33;72.83
62402;BME280;48440;51.224;22.506;2022-12-18T01:02:45;100475.34;;;-5.38;72.92
62402;BME280;48440;51.224;22.506;2022-12-18T01:05:12;100476.41;;;-5.30;72.55
62402;BME280;48440;51.224;22.506;2022-12-18T01:07:38;100480.75;;;-5.40;72.51
62402;BME280;48440;51.224;22.506;2022-12-18T01:10:04;100488.09;;;-5.32;72.87
62402;BME280;48440;51.224;22.506;2022-12-18T01:12:30;100480.16;;;-5.32;72.07
62402;BME280;48440;51.224;22.506;2022-12-18T01:14:56;100485.09;;;-5.39;72.02
62402;BME280;48440;51.224;22.506;2022-12-18T01:17:22;100496.28;;;-5.35;72.45
62402;BME280;48440;51.224;22.506;2022-12-18T01:19:47;100503.50;;;-5.37;72.64
62402;BME280;48440;51.224;22.506;2022-12-18T01:22:13;100501.94;;;-5.40;71.95
62402;BME280;48440;51.224;22.506;2022-12-18T01:24:38;100509.50;;;-5.35;71.96
62402;BME280;48440;51.224;22.506;2022-12-18T01:27:04;100511.69;;;-5.40;72.65
62402;BME280;48440;51.224;22.506;2022-12-18T01:29:29;100510.59;;;-5.38;71.76
62402;BME280;48440;51.224;22.506;2022-12-18T01:31:55;100508.78;;;-5.37;72.23
62402;BME280;48440;51.224;22.506;2022-12-18T01:34:22;100508.44;;;-5.44;71.84
62402;BME280;48440;51.224;22.506;2022-12-18T01:36:48;100516.25;;;-5.42;72.16
62402;BME280;48440;51.224;22.506;2022-12-18T01:39:14;100520.97;;;-5.46;72.27
62402;BME280;48440;51.224;22.506;2022-12-18T01:41:41;100520.44;;;-5.40;72.49
62402;BME280;48440;51.224;22.506;2022-12-18T01:47:23;100526.94;;;-5.44;72.27
62402;BME280;48440;51.224;22.506;2022-12-18T01:49:49;100532.72;;;-5.39;72.75
62402;BME280;48440;51.224;22.506;2022-12-18T01:52:16;100527.91;;;-5.45;72.78
62402;BME280;48440;51.224;22.506;2022-12-18T01:54:42;100537.66;;;-5.46;72.83
62402;BME280;48440;51.224;22.506;2022-12-18T01:57:08;100533.22;;;-5.56;72.93
62402;BME280;48440;51.224;22.506;2022-12-18T01:59:35;100539.72;;;-5.49;73.26
62402;BME280;48440;51.224;22.506;2022-12-18T02:02:02;100546.22;;;-5.53;73.94
62402;BME280;48440;51.224;22.506;2022-12-18T02:04:28;100546.69;;;-5.59;74.05
62402;BME280;48440;51.224;22.506;2022-12-18T02:09:56;100557.16;;;-5.58;74.14
62402;BME280;48440;51.224;22.506;2022-12-18T02:12:30;100552.72;;;-5.57;73.78
62402;BME280;48440;51.224;22.506;2022-12-18T02:17:47;100551.28;;;-5.50;74.22
62402;BME280;48440;51.224;22.506;2022-12-18T02:28:34;100566.75;;;-5.46;74.57
62402;BME280;48440;51.224;22.506;2022-12-18T02:31:02;100568.31;;;-5.43;74.87
62402;BME280;48440;51.224;22.506;2022-12-18T02:33:30;100573.63;;;-5.43;75.18
62402;BME280;48440;51.224;22.506;2022-12-18T02:35:57;100577.81;;;-5.40;75.23
62402;BME280;48440;51.224;22.506;2022-12-18T02:38:25;100575.53;;;-5.45;75.25
62402;BME280;48440;51.224;22.506;2022-12-18T02:40:51;100581.81;;;-5.46;75.49
62402;BME280;48440;51.224;22.506;2022-12-18T02:43:18;100577.94;;;-5.42;75.02
62402;BME280;48440;51.224;22.506;2022-12-18T02:45:54;100584.31;;;-5.44;75.05
62402;BME280;48440;51.224;22.506;2022-12-18T02:48:23;100579.28;;;-5.48;75.04
62402;BME280;48440;51.224;22.506;2022-12-18T02:51:03;100582.38;;;-5.42;74.53
62402;BME280;48440;51.224;22.506;2022-12-18T03:01:30;100602.00;;;-5.45;75.18
62402;BME280;48440;51.224;22.506;2022-12-18T03:04:16;100600.78;;;-5.41;75.40
62402;BME280;48440;51.224;22.506;2022-12-18T03:06:48;100601.63;;;-5.40;75.18
62402;BME280;48440;51.224;22.506;2022-12-18T03:09:28;100598.03;;;-5.39;75.06
62402;BME280;48440;51.224;22.506;2022-12-18T03:12:00;100604.75;;;-5.35;75.00
62402;BME280;48440;51.224;22.506;2022-12-18T03:14:50;100603.44;;;-5.41;75.38
62402;BME280;48440;51.224;22.506;2022-12-18T03:17:19;100605.25;;;-5.41;75.32
62402;BME280;48440;51.224;22.506;2022-12-18T03:19:49;100612.22;;;-5.40;75.29
62402;BME280;48440;51.224;22.506;2022-12-18T03:22:15;100602.47;;;-5.40;75.43
62402;BME280;48440;51.224;22.506;2022-12-18T03:24:41;100609.56;;;-5.40;75.88
62402;BME280;48440;51.224;22.506;2022-12-18T03:27:12;100613.53;;;-5.35;75.91
62402;BME280;48440;51.224;22.506;2022-12-18T03:29:50;100616.69;;;-5.30;75.28
62402;BME280;48440;51.224;22.506;2022-12-18T03:32:27;100616.44;;;-5.27;75.53
62402;BME280;48440;51.224;22.506;2022-12-18T03:34:55;100618.25;;;-5.27;75.11
62402;BME280;48440;51.224;22.506;2022-12-18T03:37:22;100623.06;;;-5.21;75.05
62402;BME280;48440;51.224;22.506;2022-12-18T03:39:48;100634.59;;;-5.22;75.02
62402;BME280;48440;51.224;22.506;2022-12-18T03:42:20;100637.25;;;-5.22;74.57
62402;BME280;48440;51.224;22.506;2022-12-18T03:53:35;100652.41;;;-5.24;75.18
62402;BME280;48440;51.224;22.506;2022-12-18T03:56:04;100659.16;;;-5.20;75.48
62402;BME280;48440;51.224;22.506;2022-12-18T03:58:31;100658.44;;;-5.22;75.61
62402;BME280;48440;51.224;22.506;2022-12-18T04:01:00;100660.81;;;-5.19;75.35
62402;BME280;48440;51.224;22.506;2022-12-18T04:03:29;100666.59;;;-5.14;75.35
62402;BME280;48440;51.224;22.506;2022-12-18T04:05:58;100660.94;;;-5.09;75.47
62402;BME280;48440;51.224;22.506;2022-12-18T04:08:25;100668.28;;;-5.02;75.06
62402;BME280;48440;51.224;22.506;2022-12-18T04:10:51;100670.44;;;-5.07;75.28
62402;BME280;48440;51.224;22.506;2022-12-18T04:13:24;100663.47;;;-5.08;75.15
62402;BME280;48440;51.224;22.506;2022-12-18T04:15:53;100671.28;;;-5.06;75.18
62402;BME280;48440;51.224;22.506;2022-12-18T04:18:18;100674.28;;;-5.00;74.97
62402;BME280;48440;51.224;22.506;2022-12-18T04:20:44;100676.94;;;-5.00;75.01
62402;BME280;48440;51.224;22.506;2022-12-18T04:23:10;100676.94;;;-5.00;74.86
62402;BME280;48440;51.224;22.506;2022-12-18T04:25:35;100690.41;;;-5.03;75.23
62402;BME280;48440;51.224;22.506;2022-12-18T04:28:00;100678.03;;;-5.02;74.89
62402;BME280;48440;51.224;22.506;2022-12-18T04:30:26;100682.47;;;-5.03;75.07
62402;BME280;48440;51.224;22.506;2022-12-18T04:32:51;100700.88;;;-5.01;75.08
62402;BME280;48440;51.224;22.506;2022-12-18T04:35:16;100702.94;;;-4.94;74.53
62402;BME280;48440;51.224;22.506;2022-12-18T04:37:42;100703.75;;;-4.93;74.89
62402;BME280;48440;51.224;22.506;2022-12-18T04:40:08;100704.59;;;-4.93;74.13
62402;BME280;48440;51.224;22.506;2022-12-18T04:42:33;100711.13;;;-4.97;73.88
62402;BME280;48440;51.224;22.506;2022-12-18T04:44:59;100704.25;;;-4.99;74.75
62402;BME280;48440;51.224;22.506;2022-12-18T04:47:24;100712.31;;;-5.01;74.67
62402;BME280;48440;51.224;22.506;2022-12-18T04:49:50;100716.06;;;-5.03;74.60
62402;BME280;48440;51.224;22.506;2022-12-18T04:52:15;100712.09;;;-4.98;74.87
62402;BME280;48440;51.224;22.506;2022-12-18T04:54:41;100722.44;;;-4.95;74.14
62402;BME280;48440;51.224;22.506;2022-12-18T04:57:06;100726.78;;;-4.94;74.53
62402;BME280;48440;51.224;22.506;2022-12-18T04:59:32;100724.34;;;-4.97;74.46
62402;BME280;48440;51.224;22.506;2022-12-18T05:01:57;100744.31;;;-4.93;74.13
62402;BME280;48440;51.224;22.506;2022-12-18T05:04:22;100733.59;;;-4.91;73.79
62402;BME280;48440;51.224;22.506;2022-12-18T05:06:48;100736.13;;;-4.90;73.81
62402;BME280;48440;51.224;22.506;2022-12-18T05:09:13;100744.19;;;-4.91;73.94
62402;BME280;48440;51.224;22.506;2022-12-18T05:11:39;100748.53;;;-4.90;73.99
62402;BME280;48440;51.224;22.506;2022-12-18T05:14:04;100748.06;;;-4.95;74.66
62402;BME280;48440;51.224;22.506;2022-12-18T05:16:30;100747.97;;;-4.94;74.33
62402;BME280;48440;51.224;22.506;2022-12-18T05:18:55;100751.06;;;-4.89;74.11
62402;BME280;48440;51.224;22.506;2022-12-18T05:21:21;100757.56;;;-4.93;74.01
62402;BME280;48440;51.224;22.506;2022-12-18T05:23:46;100762.16;;;-4.95;74.03
62402;BME280;48440;51.224;22.506;2022-12-18T05:26:16;100762.84;;;-4.93;74.02
62402;BME280;48440;51.224;22.506;2022-12-18T05:28:42;100762.84;;;-4.93;73.87
62402;BME280;48440;51.224;22.506;2022-12-18T05:31:08;100768.03;;;-4.91;73.59
62402;BME280;48440;51.224;22.506;2022-12-18T05:33:34;100779.59;;;-4.92;73.79
62402;BME280;48440;51.224;22.506;2022-12-18T05:36:02;100781.88;;;-4.88;73.87
62402;BME280;48440;51.224;22.506;2022-12-18T05:38:30;100783.06;;;-4.92;73.63
62402;BME280;48440;51.224;22.506;2022-12-18T05:40:56;100784.03;;;-4.93;73.21
62402;BME280;48440;51.224;22.506;2022-12-18T05:43:25;100785.25;;;-4.97;73.46
62402;BME280;48440;51.224;22.506;2022-12-18T05:45:52;100784.66;;;-5.00;73.71
62402;BME280;48440;51.224;22.506;2022-12-18T05:48:18;100790.44;;;-4.95;73.09
62402;BME280;48440;51.224;22.506;2022-12-18T05:50:45;100786.69;;;-4.93;73.07
62402;BME280;48440;51.224;22.506;2022-12-18T05:53:12;100806.81;;;-5.01;72.99
62402;BME280;48440;51.224;22.506;2022-12-18T05:55:39;100797.66;;;-4.97;73.42
62402;BME280;48440;51.224;22.506;2022-12-18T05:58:06;100797.16;;;-5.02;73.27
62402;BME280;48440;51.224;22.506;2022-12-18T06:00:33;100786.47;;;-5.01;73.22
62402;BME280;48440;51.224;22.506;2022-12-18T06:03:00;100796.56;;;-5.06;73.30
62402;BME280;48440;51.224;22.506;2022-12-18T06:05:26;100800.31;;;-4.97;73.38
62402;BME280;48440;51.224;22.506;2022-12-18T06:07:52;100810.78;;;-4.96;72.85
62402;BME280;48440;51.224;22.506;2022-12-18T06:10:18;100816.19;;;-4.97;72.94
62402;BME280;48440;51.224;22.506;2022-12-18T06:12:43;100821.34;;;-5.07;73.14
62402;BME280;48440;51.224;22.506;2022-12-18T06:15:09;100815.81;;;-5.04;73.30
62402;BME280;48440;51.224;22.506;2022-12-18T06:17:35;100831.72;;;-5.04;73.64
62402;BME280;48440;51.224;22.506;2022-12-18T06:20:00;100839.66;;;-5.04;73.83
62402;BME280;48440;51.224;22.506;2022-12-18T06:22:27;100842.28;;;-5.04;73.18
62402;BME280;48440;51.224;22.506;2022-12-18T06:24:52;100844.38;;;-4.96;73.25
62402;BME280;48440;51.224;22.506;2022-12-18T06:27:18;100846.91;;;-4.95;73.40
62402;BME280;48440;51.224;22.506;2022-12-18T06:29:44;100849.50;;;-5.06;73.37
62402;BME280;48440;51.224;22.506;2022-12-18T06:32:09;100859.13;;;-5.05;73.49
62402;BME280;48440;51.224;22.506;2022-12-18T06:34:37;100858.78;;;-5.00;74.02
62402;BME280;48440;51.224;22.506;2022-12-18T06:37:03;100864.09;;;-5.00;73.51
62402;BME280;48440;51.224;22.506;2022-12-18T06:39:29;100863.38;;;-5.02;73.57
62402;BME280;48440;51.224;22.506;2022-12-18T06:41:55;100866.00;;;-5.02;73.61
62402;BME280;48440;51.224;22.506;2022-12-18T06:44:20;100883.47;;;-5.00;73.88
62402;BME280;48440;51.224;22.506;2022-12-18T06:46:46;100881.56;;;-4.98;73.74
62402;BME280;48440;51.224;22.506;2022-12-18T06:49:11;100880.94;;;-5.01;73.86
62402;BME280;48440;51.224;22.506;2022-12-18T06:51:37;100889.09;;;-5.04;74.13
62402;BME280;48440;51.224;22.506;2022-12-18T06:54:03;100889.09;;;-5.04;74.06
62402;BME280;48440;51.224;22.506;2022-12-18T06:56:29;100903.19;;;-5.04;74.05
62402;BME280;48440;51.224;22.506;2022-12-18T06:58:55;100901.50;;;-5.05;74.18
62402;BME280;48440;51.224;22.506;2022-12-18T07:01:21;100918.22;;;-5.04;73.98
62402;BME280;48440;51.224;22.506;2022-12-18T07:03:47;100911.03;;;-5.02;74.63
62402;BME280;48440;51.224;22.506;2022-12-18T07:06:18;100909.94;;;-5.00;74.70
62402;BME280;48440;51.224;22.506;2022-12-18T07:08:44;100913.22;;;-4.96;74.51
62402;BME280;48440;51.224;22.506;2022-12-18T07:11:10;100929.09;;;-4.96;74.62
62402;BME280;48440;51.224;22.506;2022-12-18T07:13:36;100926.06;;;-5.03;74.70
62402;BME280;48440;51.224;22.506;2022-12-18T07:16:10;100929.56;;;-5.02;74.70
62402;BME280;48440;51.224;22.506;2022-12-18T07:18:36;100937.50;;;-5.02;74.88
62402;BME280;48440;51.224;22.506;2022-12-18T07:21:03;100941.63;;;-4.98;75.42
62402;BME280;48440;51.224;22.506;2022-12-18T07:23:29;100940.75;;;-4.99;75.13
62402;BME280;48440;51.224;22.506;2022-12-18T07:25:54;100940.44;;;-4.94;75.09
62402;BME280;48440;51.224;22.506;2022-12-18T07:28:20;100948.22;;;-4.93;75.48
62402;BME280;48440;51.224;22.506;2022-12-18T07:30:45;100951.50;;;-4.89;75.20
62402;BME280;48440;51.224;22.506;2022-12-18T07:33:11;100951.03;;;-4.83;74.91
62402;BME280;48440;51.224;22.506;2022-12-18T07:35:36;100953.78;;;-4.85;74.57
62402;BME280;48440;51.224;22.506;2022-12-18T07:38:02;100959.09;;;-4.85;74.75
62402;BME280;48440;51.224;22.506;2022-12-18T07:40:27;100966.69;;;-4.80;75.10
62402;BME280;48440;51.224;22.506;2022-12-18T07:42:53;100974.41;;;-4.77;74.90
62402;BME280;48440;51.224;22.506;2022-12-18T07:45:18;100977.91;;;-4.76;75.13
62402;BME280;48440;51.224;22.506;2022-12-18T07:47:44;100976.00;;;-4.74;74.96
62402;BME280;48440;51.224;22.506;2022-12-18T07:50:09;100986.69;;;-4.76;75.38
62402;BME280;48440;51.224;22.506;2022-12-18T07:52:35;100982.88;;;-4.72;75.04
62402;BME280;48440;51.224;22.506;2022-12-18T07:55:00;100993.22;;;-4.69;75.13
62402;BME280;48440;51.224;22.506;2022-12-18T07:57:26;100990.44;;;-4.67;75.31
62402;BME280;48440;51.224;22.506;2022-12-18T07:59:51;100987.66;;;-4.66;74.84
62402;BME280;48440;51.224;22.506;2022-12-18T08:02:17;100999.50;;;-4.59;74.39
62402;BME280;48440;51.224;22.506;2022-12-18T08:04:42;100991.44;;;-4.57;74.85
62402;BME280;48440;51.224;22.506;2022-12-18T08:07:07;100997.84;;;-4.49;74.72
62402;BME280;48440;51.224;22.506;2022-12-18T08:09:33;101004.84;;;-4.48;74.08
62402;BME280;48440;51.224;22.506;2022-12-18T08:11:58;101009.78;;;-4.43;73.89
62402;BME280;48440;51.224;22.506;2022-12-18T08:14:24;101007.84;;;-4.41;73.92
62402;BME280;48440;51.224;22.506;2022-12-18T08:16:49;101012.69;;;-4.46;73.96
62402;BME280;48440;51.224;22.506;2022-12-18T08:19:15;101011.00;;;-4.47;74.39
62402;BME280;48440;51.224;22.506;2022-12-18T08:21:40;101011.59;;;-4.43;74.14
62402;BME280;48440;51.224;22.506;2022-12-18T08:24:06;101022.78;;;-4.40;74.36
62402;BME280;48440;51.224;22.506;2022-12-18T08:26:31;101028.34;;;-4.32;73.96
62402;BME280;48440;51.224;22.506;2022-12-18T08:28:59;101023.06;;;-4.32;73.71
62402;BME280;48440;51.224;22.506;2022-12-18T08:31:25;101025.09;;;-4.35;73.60
62402;BME280;48440;51.224;22.506;2022-12-18T08:33:52;101026.56;;;-4.31;73.50
62402;BME280;48440;51.224;22.506;2022-12-18T08:36:19;101029.19;;;-4.31;73.35
62402;BME280;48440;51.224;22.506;2022-12-18T08:38:45;101039.56;;;-4.28;73.30
62402;BME280;48440;51.224;22.506;2022-12-18T08:41:12;101036.91;;;-4.28;73.04
62402;BME280;48440;51.224;22.506;2022-12-18T08:43:39;101041.25;;;-4.27;72.66
62402;BME280;48440;51.224;22.506;2022-12-18T08:46:25;101039.22;;;-4.24;72.37
62402;BME280;48440;51.224;22.506;2022-12-18T08:48:51;101049.84;;;-4.24;72.34
62402;BME280;48440;51.224;22.506;2022-12-18T08:51:18;101045.38;;;-4.23;72.68
62402;BME280;48440;51.224;22.506;2022-12-18T08:53:44;101051.63;;;-4.24;72.26
62402;BME280;48440;51.224;22.506;2022-12-18T08:56:10;101054.78;;;-4.19;72.70
62402;BME280;48440;51.224;22.506;2022-12-18T08:58:36;101053.81;;;-4.18;72.66
62402;BME280;48440;51.224;22.506;2022-12-18T09:01:03;101060.22;;;-4.10;72.28
62402;BME280;48440;51.224;22.506;2022-12-18T09:03:29;101058.63;;;-4.12;72.47
62402;BME280;48440;51.224;22.506;2022-12-18T09:05:54;101060.66;;;-4.16;72.42
62402;BME280;48440;51.224;22.506;2022-12-18T09:08:20;101061.78;;;-4.18;72.08
62402;BME280;48440;51.224;22.506;2022-12-18T09:10:47;101073.22;;;-4.18;72.51
62402;BME280;48440;51.224;22.506;2022-12-18T09:13:14;101070.31;;;-4.15;72.21
62402;BME280;48440;51.224;22.506;2022-12-18T09:15:49;101069.84;;;-4.20;72.34
62402;BME280;48440;51.224;22.506;2022-12-18T09:18:16;101079.13;;;-4.14;71.97
62402;BME280;48440;51.224;22.506;2022-12-18T09:20:42;101085.16;;;-4.12;71.67
62402;BME280;48440;51.224;22.506;2022-12-18T09:23:08;101088.03;;;-4.15;72.15
62402;BME280;48440;51.224;22.506;2022-12-18T09:25:43;101085.38;;;-4.15;71.36
62402;BME280;48440;51.224;22.506;2022-12-18T09:28:16;101097.56;;;-4.13;71.62
62402;BME280;48440;51.224;22.506;2022-12-18T09:30:45;101101.44;;;-4.05;71.71
62402;BME280;48440;51.224;22.506;2022-12-18T09:33:11;101096.25;;;-4.07;71.34
62402;BME280;48440;51.224;22.506;2022-12-18T09:35:40;101102.53;;;-4.08;71.43
62402;BME280;48440;51.224;22.506;2022-12-18T09:38:06;101098.19;;;-4.09;71.05
62402;BME280;48440;51.224;22.506;2022-12-18T09:40:45;101108.78;;;-4.09;71.32
62402;BME280;48440;51.224;22.506;2022-12-18T09:43:22;101112.16;;;-4.07;71.63
62402;BME280;48440;51.224;22.506;2022-12-18T09:45:53;101117.69;;;-4.10;71.02
62402;BME280;48440;51.224;22.506;2022-12-18T09:48:27;101120.47;;;-4.12;71.33
62402;BME280;48440;51.224;22.506;2022-12-18T09:51:03;101116.84;;;-4.11;71.40
62402;BME280;48440;51.224;22.506;2022-12-18T09:53:33;101120.13;;;-4.07;70.96
62402;BME280;48440;51.224;22.506;2022-12-18T09:56:03;101104.72;;;-4.02;71.09
62402;BME280;48440;51.224;22.506;2022-12-18T09:58:37;101104.09;;;-4.05;70.65
62402;BME280;48440;51.224;22.506;2022-12-18T10:01:10;101105.66;;;-4.03;70.69
62402;BME280;48440;51.224;22.506;2022-12-18T10:03:36;101104.94;;;-4.05;70.58
62402;BME280;48440;51.224;22.506;2022-12-18T10:12:12;101127.63;;;-4.01;69.88
62402;BME280;48440;51.224;22.506;2022-12-18T10:15:01;101128.25;;;-3.97;69.43
62402;BME280;48440;51.224;22.506;2022-12-18T10:17:52;101125.81;;;-4.00;69.74
62402;BME280;48440;51.224;22.506;2022-12-18T10:20:52;101121.25;;;-3.98;68.92
62402;BME280;48440;51.224;22.506;2022-12-18T10:26:34;101124.13;;;-4.01;69.29
62402;BME280;48440;51.224;22.506;2022-12-18T10:29:00;101136.94;;;-3.95;69.61
62402;BME280;48440;51.224;22.506;2022-12-18T10:31:26;101142.72;;;-3.90;68.57
62402;BME280;48440;51.224;22.506;2022-12-18T10:33:55;101137.03;;;-3.97;68.75
62402;BME280;48440;51.224;22.506;2022-12-18T10:36:23;101140.03;;;-4.01;69.23
62402;BME280;48440;51.224;22.506;2022-12-18T10:38:49;101126.66;;;-4.00;69.25
62402;BME280;48440;51.224;22.506;2022-12-18T10:43:47;101130.78;;;-3.96;69.07
62402;BME280;48440;51.224;22.506;2022-12-18T10:46:16;101129.47;;;-3.79;70.50
62402;BME280;48440;51.224;22.506;2022-12-18T10:51:27;101143.44;;;-3.88;68.52
62402;BME280;48440;51.224;22.506;2022-12-18T10:56:27;101136.06;;;-3.96;67.87
62402;BME280;48440;51.224;22.506;2022-12-18T10:59:01;101132.13;;;-3.90;67.34
62402;BME280;48440;51.224;22.506;2022-12-18T11:01:51;101133.31;;;-3.94;67.13
62402;BME280;48440;51.224;22.506;2022-12-18T11:04:29;101132.47;;;-3.95;67.09
62402;BME280;48440;51.224;22.506;2022-12-18T11:07:07;101137.44;;;-3.90;66.94
62402;BME280;48440;51.224;22.506;2022-12-18T11:09:35;101134.63;;;-3.89;67.44
62402;BME280;48440;51.224;22.506;2022-12-18T11:12:04;101137.78;;;-3.95;67.40
62402;BME280;48440;51.224;22.506;2022-12-18T11:14:43;101138.34;;;-4.02;67.70
62402;BME280;48440;51.224;22.506;2022-12-18T11:17:31;101143.31;;;-3.98;67.37
62402;BME280;48440;51.224;22.506;2022-12-18T11:20:33;101155.09;;;-4.02;67.39
62402;BME280;48440;51.224;22.506;2022-12-18T11:23:02;101166.69;;;-4.03;67.01
62402;BME280;48440;51.224;22.506;2022-12-18T11:25:30;101168.88;;;-3.97;67.08
62402;BME280;48440;51.224;22.506;2022-12-18T11:27:59;101164.19;;;-3.93;66.69
62402;BME280;48440;51.224;22.506;2022-12-18T11:30:29;101169.72;;;-3.96;66.74
62402;BME280;48440;51.224;22.506;2022-12-18T11:33:11;101176.81;;;-3.97;67.01
62402;BME280;48440;51.224;22.506;2022-12-18T11:35:53;101173.28;;;-4.08;67.03
62402;BME280;48440;51.224;22.506;2022-12-18T11:41:06;101181.09;;;-4.18;67.29
62402;BME280;48440;51.224;22.506;2022-12-18T11:43:45;101172.63;;;-4.23;67.77
62402;BME280;48440;51.224;22.506;2022-12-18T11:46:27;101172.88;;;-4.26;67.73
62402;BME280;48440;51.224;22.506;2022-12-18T11:49:01;101181.78;;;-4.27;67.82
62402;BME280;48440;51.224;22.506;2022-12-18T11:51:37;101177.94;;;-4.23;67.24
62402;BME280;48440;51.224;22.506;2022-12-18T11:54:14;101176.59;;;-4.29;67.16
62402;BME280;48440;51.224;22.506;2022-12-18T11:56:48;101183.19;;;-4.34;67.03
62402;BME280;48440;51.224;22.506;2022-12-18T11:59:21;101182.34;;;-4.35;67.37
62402;BME280;48440;51.224;22.506;2022-12-18T12:07:35;101195.19;;;-4.41;67.67
62402;BME280;48440;51.224;22.506;2022-12-18T12:10:29;101194.81;;;-4.48;67.80
62402;BME280;48440;51.224;22.506;2022-12-18T12:21:28;101200.34;;;-4.51;67.85
62402;BME280;48440;51.224;22.506;2022-12-18T12:40:20;101229.03;;;-4.69;67.69
62402;BME280;48440;51.224;22.506;2022-12-18T12:42:55;101227.34;;;-4.70;67.08
62402;BME280;48440;51.224;22.506;2022-12-18T12:46:00;101233.59;;;-4.71;67.45
62402;BME280;48440;51.224;22.506;2022-12-18T12:48:49;101229.78;;;-4.80;67.20
62402;BME280;48440;51.224;22.506;2022-12-18T12:51:25;101243.97;;;-4.81;66.72
62402;BME280;48440;51.224;22.506;2022-12-18T12:53:53;101251.81;;;-4.79;66.97
62402;BME280;48440;51.224;22.506;2022-12-18T12:56:21;101247.38;;;-4.79;67.46
62402;BME280;48440;51.224;22.506;2022-12-18T12:59:20;101261.03;;;-4.85;67.24
62402;BME280;48440;51.224;22.506;2022-12-18T13:07:41;101273.13;;;-4.93;67.67
62402;BME280;48440;51.224;22.506;2022-12-18T13:13:11;101277.41;;;-5.03;68.33
62402;BME280;48440;51.224;22.506;2022-12-18T13:15:47;101288.41;;;-4.97;68.26
62402;BME280;48440;51.224;22.506;2022-12-18T13:18:21;101293.91;;;-5.00;68.25
62402;BME280;48440;51.224;22.506;2022-12-18T13:21:04;101299.44;;;-5.03;67.69
62402;BME280;48440;51.224;22.506;2022-12-18T13:23:37;101305.69;;;-5.04;68.44
62402;BME280;48440;51.224;22.506;2022-12-18T13:31:14;101318.69;;;-5.14;68.87
62402;BME280;48440;51.224;22.506;2022-12-18T13:33:44;101326.63;;;-5.14;68.75
62402;BME280;48440;51.224;22.506;2022-12-18T13:39:09;101341.25;;;-5.21;68.58
62402;BME280;48440;51.224;22.506;2022-12-18T13:41:35;101335.03;;;-5.20;68.48
62402;BME280;48440;51.224;22.506;2022-12-18T13:46:48;101336.06;;;-5.22;68.66
62402;BME280;48440;51.224;22.506;2022-12-18T13:49:44;101339.03;;;-5.27;68.73
62402;BME280;48440;51.224;22.506;2022-12-18T13:54:42;101345.47;;;-5.31;69.05
62402;BME280;48440;51.224;22.506;2022-12-18T13:59:55;101355.06;;;-5.42;69.11
62402;BME280;48440;51.224;22.506;2022-12-18T14:02:23;101350.72;;;-5.43;69.64
62402;BME280;48440;51.224;22.506;2022-12-18T14:04:51;101362.25;;;-5.44;69.05
62402;BME280;48440;51.224;22.506;2022-12-18T14:07:19;101361.00;;;-5.52;69.75
62402;BME280;48440;51.224;22.506;2022-12-18T14:09:48;101366.59;;;-5.56;69.83
62402;BME280;48440;51.224;22.506;2022-12-18T14:12:17;101364.91;;;-5.57;69.76
62402;BME280;48440;51.224;22.506;2022-12-18T14:15:03;101370.63;;;-5.51;70.11
62402;BME280;48440;51.224;22.506;2022-12-18T14:17:31;101364.03;;;-5.58;70.00
62402;BME280;48440;51.224;22.506;2022-12-18T14:19:57;101381.91;;;-5.61;70.25
62402;BME280;48440;51.224;22.506;2022-12-18T14:22:25;101378.31;;;-5.60;70.85
62402;BME280;48440;51.224;22.506;2022-12-18T14:27:44;101385.00;;;-5.55;70.78
62402;BME280;48440;51.224;22.506;2022-12-18T14:33:05;101390.09;;;-5.52;70.68
62402;BME280;48440;51.224;22.506;2022-12-18T14:35:32;101400.88;;;-5.55;70.37
62402;BME280;48440;51.224;22.506;2022-12-18T14:38:21;101401.09;;;-5.58;70.75
62402;BME280;48440;51.224;22.506;2022-12-18T14:40:52;101393.50;;;-5.50;70.65
62402;BME280;48440;51.224;22.506;2022-12-18T14:43:18;101397.84;;;-5.49;70.83
62402;BME280;48440;51.224;22.506;2022-12-18T14:45:44;101407.03;;;-5.54;70.58